sensor_id;sensor_type;location;lat;lon;timestamp;temperature;humidity
15384;DHT22;7790;53.022;12.968;2024-02-21T00:02:20;22.50;45.70
15384;DHT22;7790;53.022;12.968;2024-02-21T00:06:21;22.40;45.70
15384;DHT22;7790;53.022;12.968;2024-02-21T00:10:22;22.50;45.60
15384;DHT22;7790;53.022;12.968;2024-02-21T00:14:23;22.50;45.60
15384;DHT22;7790;53.022;12.968;2024-02-21T00:18:24;22.40;46.30
15384;DHT22;7790;53.022;12.968;2024-02-21T00:22:25;22.40;46.70
15384;DHT22;7790;53.022;12.968;2024-02-21T00:26:28;22.50;46.70
15384;DHT22;7790;53.022;12.968;2024-02-21T00:30:29;22.50;46.50
15384;DHT22;7790;53.022;12.968;2024-02-21T00:34:30;22.50;46.80
15384;DHT22;7790;53.022;12.968;2024-02-21T00:38:31;22.60;47.30
15384;DHT22;7790;53.022;12.968;2024-02-21T00:42:32;22.60;46.90
15384;DHT22;7790;53.022;12.968;2024-02-21T00:46:32;22.70;46.70
15384;DHT22;7790;53.022;12.968;2024-02-21T00:50:33;22.70;46.70
15384;DHT22;7790;53.022;12.968;2024-02-21T00:54:34;22.70;46.60
15384;DHT22;7790;53.022;12.968;2024-02-21T00:58:35;22.70;46.90
15384;DHT22;7790;53.022;12.968;2024-02-21T01:02:36;22.70;46.40
15384;DHT22;7790;53.022;12.968;2024-02-21T01:06:37;22.50;46.30
15384;DHT22;7790;53.022;12.968;2024-02-21T01:10:38;22.50;46.30
15384;DHT22;7790;53.022;12.968;2024-02-21T01:14:38;22.50;46.00
15384;DHT22;7790;53.022;12.968;2024-02-21T01:18:39;22.60;45.80
15384;DHT22;7790;53.022;12.968;2024-02-21T01:22:40;22.60;45.70
15384;DHT22;7790;53.022;12.968;2024-02-21T01:26:41;22.70;45.50
15384;DHT22;7790;53.022;12.968;2024-02-21T01:30:42;22.70;45.50
15384;DHT22;7790;53.022;12.968;2024-02-21T01:34:43;22.70;45.50
15384;DHT22;7790;53.022;12.968;2024-02-21T01:38:44;22.70;45.50
15384;DHT22;7790;53.022;12.968;2024-02-21T01:42:44;22.70;45.80
15384;DHT22;7790;53.022;12.968;2024-02-21T01:46:45;22.60;46.00
15384;DHT22;7790;53.022;12.968;2024-02-21T01:50:47;22.60;46.00
15384;DHT22;7790;53.022;12.968;2024-02-21T01:54:48;22.50;45.90
15384;DHT22;7790;53.022;12.968;2024-02-21T01:58:49;22.50;46.00
15384;DHT22;7790;53.022;12.968;2024-02-21T02:02:51;22.40;46.00
15384;DHT22;7790;53.022;12.968;2024-02-21T02:06:54;22.50;45.90
15384;DHT22;7790;53.022;12.968;2024-02-21T02:10:55;22.60;45.70
15384;DHT22;7790;53.022;12.968;2024-02-21T02:15:00;22.60;45.80
15384;DHT22;7790;53.022;12.968;2024-02-21T02:19:01;22.60;45.90
15384;DHT22;7790;53.022;12.968;2024-02-21T02:23:09;22.60;45.90
15384;DHT22;7790;53.022;12.968;2024-02-21T02:27:10;22.50;46.30
15384;DHT22;7790;53.022;12.968;2024-02-21T02:31:11;22.50;46.30
15384;DHT22;7790;53.022;12.968;2024-02-21T02:35:13;22.60;46.40
15384;DHT22;7790;53.022;12.968;2024-02-21T02:39:13;22.70;46.10
15384;DHT22;7790;53.022;12.968;2024-02-21T02:43:14;22.60;46.20
15384;DHT22;7790;53.022;12.968;2024-02-21T02:47:15;22.60;46.30
15384;DHT22;7790;53.022;12.968;2024-02-21T02:51:16;22.50;46.10
15384;DHT22;7790;53.022;12.968;2024-02-21T02:55:17;22.50;46.10
15384;DHT22;7790;53.022;12.968;2024-02-21T02:59:18;22.40;46.00
15384;DHT22;7790;53.022;12.968;2024-02-21T03:03:19;22.50;45.80
15384;DHT22;7790;53.022;12.968;2024-02-21T03:07:20;22.50;45.70
15384;DHT22;7790;53.022;12.968;2024-02-21T03:11:21;22.60;45.60
15384;DHT22;7790;53.022;12.968;2024-02-21T03:15:29;22.70;45.50
15384;DHT22;7790;53.022;12.968;2024-02-21T03:19:30;22.80;45.30
15384;DHT22;7790;53.022;12.968;2024-02-21T03:23:30;22.80;45.50
15384;DHT22;7790;53.022;12.968;2024-02-21T03:27:31;22.70;45.70
15384;DHT22;7790;53.022;12.968;2024-02-21T03:31:32;22.70;45.70
15384;DHT22;7790;53.022;12.968;2024-02-21T03:35:33;22.60;45.90
15384;DHT22;7790;53.022;12.968;2024-02-21T03:39:34;22.60;45.90
15384;DHT22;7790;53.022;12.968;2024-02-21T03:43:35;22.50;46.00
15384;DHT22;7790;53.022;12.968;2024-02-21T03:47:35;22.50;46.00
15384;DHT22;7790;53.022;12.968;2024-02-21T03:51:36;22.40;45.90
15384;DHT22;7790;53.022;12.968;2024-02-21T03:55:37;22.50;45.80
15384;DHT22;7790;53.022;12.968;2024-02-21T03:59:38;22.50;45.60
15384;DHT22;7790;53.022;12.968;2024-02-21T04:03:40;22.60;45.60
15384;DHT22;7790;53.022;12.968;2024-02-21T04:07:41;22.70;45.50
15384;DHT22;7790;53.022;12.968;2024-02-21T04:11:43;22.60;45.70
15384;DHT22;7790;53.022;12.968;2024-02-21T04:15:44;22.50;45.80
15384;DHT22;7790;53.022;12.968;2024-02-21T04:19:44;22.60;46.10
15384;DHT22;7790;53.022;12.968;2024-02-21T04:23:45;22.60;47.00
15384;DHT22;7790;53.022;12.968;2024-02-21T04:27:46;22.60;47.10
15384;DHT22;7790;53.022;12.968;2024-02-21T04:31:47;22.80;45.70
15384;DHT22;7790;53.022;12.968;2024-02-21T04:35:48;22.90;45.40
15384;DHT22;7790;53.022;12.968;2024-02-21T04:39:49;22.90;45.30
15384;DHT22;7790;53.022;12.968;2024-02-21T04:43:49;22.80;45.20
15384;DHT22;7790;53.022;12.968;2024-02-21T04:47:50;22.80;45.20
15384;DHT22;7790;53.022;12.968;2024-02-21T04:51:51;22.80;45.20
15384;DHT22;7790;53.022;12.968;2024-02-21T04:55:52;22.80;45.10
15384;DHT22;7790;53.022;12.968;2024-02-21T04:59:52;22.80;45.00
15384;DHT22;7790;53.022;12.968;2024-02-21T05:03:53;22.90;44.90
15384;DHT22;7790;53.022;12.968;2024-02-21T05:07:54;23.00;44.80
15384;DHT22;7790;53.022;12.968;2024-02-21T05:11:55;22.90;44.80
15384;DHT22;7790;53.022;12.968;2024-02-21T05:15:56;22.90;44.70
15384;DHT22;7790;53.022;12.968;2024-02-21T05:19:57;22.90;44.70
15384;DHT22;7790;53.022;12.968;2024-02-21T05:23:58;22.90;44.70
15384;DHT22;7790;53.022;12.968;2024-02-21T05:28:00;22.90;44.70
15384;DHT22;7790;53.022;12.968;2024-02-21T05:32:03;22.80;44.70
15384;DHT22;7790;53.022;12.968;2024-02-21T05:36:04;22.70;44.70
15384;DHT22;7790;53.022;12.968;2024-02-21T05:40:06;22.70;44.80
15384;DHT22;7790;53.022;12.968;2024-02-21T05:44:07;22.70;44.80
15384;DHT22;7790;53.022;12.968;2024-02-21T05:48:08;22.80;44.60
15384;DHT22;7790;53.022;12.968;2024-02-21T05:52:08;22.80;44.50
15384;DHT22;7790;53.022;12.968;2024-02-21T05:56:13;22.90;44.60
15384;DHT22;7790;53.022;12.968;2024-02-21T06:00:15;23.00;44.40
15384;DHT22;7790;53.022;12.968;2024-02-21T06:04:16;23.00;44.80
15384;DHT22;7790;53.022;12.968;2024-02-21T06:08:16;23.00;44.80
15384;DHT22;7790;53.022;12.968;2024-02-21T06:12:17;23.00;44.30
15384;DHT22;7790;53.022;12.968;2024-02-21T06:16:18;22.90;44.40
15384;DHT22;7790;53.022;12.968;2024-02-21T06:20:19;22.90;44.40
15384;DHT22;7790;53.022;12.968;2024-02-21T06:24:19;22.70;45.00
15384;DHT22;7790;53.022;12.968;2024-02-21T06:28:20;22.50;45.90
15384;DHT22;7790;53.022;12.968;2024-02-21T06:32:21;22.50;46.40
15384;DHT22;7790;53.022;12.968;2024-02-21T06:36:22;22.50;46.50
15384;DHT22;7790;53.022;12.968;2024-02-21T06:40:23;22.40;46.90
15384;DHT22;7790;53.022;12.968;2024-02-21T06:44:24;22.60;46.70
15384;DHT22;7790;53.022;12.968;2024-02-21T06:48:26;22.50;47.40
15384;DHT22;7790;53.022;12.968;2024-02-21T06:52:26;22.50;47.30
15384;DHT22;7790;53.022;12.968;2024-02-21T06:56:27;22.60;47.70
15384;DHT22;7790;53.022;12.968;2024-02-21T07:00:29;22.60;47.60
15384;DHT22;7790;53.022;12.968;2024-02-21T07:04:30;22.60;47.40
15384;DHT22;7790;53.022;12.968;2024-02-21T07:08:31;22.70;46.80
15384;DHT22;7790;53.022;12.968;2024-02-21T07:12:31;22.60;46.60
15384;DHT22;7790;53.022;12.968;2024-02-21T07:16:32;22.50;46.80
15384;DHT22;7790;53.022;12.968;2024-02-21T07:20:33;22.40;46.70
15384;DHT22;7790;53.022;12.968;2024-02-21T07:24:34;22.50;46.50
15384;DHT22;7790;53.022;12.968;2024-02-21T07:28:35;22.50;46.50
15384;DHT22;7790;53.022;12.968;2024-02-21T07:32:36;22.50;46.50
15384;DHT22;7790;53.022;12.968;2024-02-21T07:36:37;22.50;46.60
15384;DHT22;7790;53.022;12.968;2024-02-21T07:40:39;22.50;46.90
15384;DHT22;7790;53.022;12.968;2024-02-21T07:44:40;22.50;47.00
15384;DHT22;7790;53.022;12.968;2024-02-21T07:48:40;22.60;47.10
15384;DHT22;7790;53.022;12.968;2024-02-21T07:52:42;22.60;47.00
15384;DHT22;7790;53.022;12.968;2024-02-21T07:56:42;22.60;47.50
15384;DHT22;7790;53.022;12.968;2024-02-21T08:00:43;22.50;47.60
15384;DHT22;7790;53.022;12.968;2024-02-21T08:04:44;22.40;47.20
15384;DHT22;7790;53.022;12.968;2024-02-21T08:08:45;22.40;47.30
15384;DHT22;7790;53.022;12.968;2024-02-21T08:12:46;22.30;47.10
15384;DHT22;7790;53.022;12.968;2024-02-21T08:16:47;22.40;47.00
15384;DHT22;7790;53.022;12.968;2024-02-21T08:20:48;22.40;46.90
15384;DHT22;7790;53.022;12.968;2024-02-21T08:24:49;22.40;47.20
15384;DHT22;7790;53.022;12.968;2024-02-21T08:28:50;22.40;47.10
15384;DHT22;7790;53.022;12.968;2024-02-21T08:32:51;22.50;47.30
15384;DHT22;7790;53.022;12.968;2024-02-21T08:36:54;22.50;47.70
15384;DHT22;7790;53.022;12.968;2024-02-21T08:40:55;22.60;46.70
15384;DHT22;7790;53.022;12.968;2024-02-21T08:44:56;22.70;46.70
15384;DHT22;7790;53.022;12.968;2024-02-21T08:48:56;22.70;46.20
15384;DHT22;7790;53.022;12.968;2024-02-21T08:52:57;22.90;45.80
15384;DHT22;7790;53.022;12.968;2024-02-21T08:56:58;22.70;45.90
15384;DHT22;7790;53.022;12.968;2024-02-21T09:00:59;22.50;45.90
15384;DHT22;7790;53.022;12.968;2024-02-21T09:05:00;22.50;46.00
15384;DHT22;7790;53.022;12.968;2024-02-21T09:09:01;22.50;45.90
15384;DHT22;7790;53.022;12.968;2024-02-21T09:13:01;22.60;45.80
15384;DHT22;7790;53.022;12.968;2024-02-21T09:17:04;22.70;45.70
15384;DHT22;7790;53.022;12.968;2024-02-21T09:21:05;22.70;45.60
15384;DHT22;7790;53.022;12.968;2024-02-21T09:25:06;22.70;45.60
15384;DHT22;7790;53.022;12.968;2024-02-21T09:29:07;22.80;45.40
15384;DHT22;7790;53.022;12.968;2024-02-21T09:33:08;22.80;45.40
15384;DHT22;7790;53.022;12.968;2024-02-21T09:37:09;22.90;45.40
15384;DHT22;7790;53.022;12.968;2024-02-21T09:41:17;22.90;45.40
15384;DHT22;7790;53.022;12.968;2024-02-21T09:45:23;22.80;45.50
15384;DHT22;7790;53.022;12.968;2024-02-21T09:49:31;22.80;45.50
15384;DHT22;7790;53.022;12.968;2024-02-21T09:53:38;22.80;45.50
15384;DHT22;7790;53.022;12.968;2024-02-21T09:57:40;22.70;45.60
15384;DHT22;7790;53.022;12.968;2024-02-21T10:01:43;22.60;45.60
15384;DHT22;7790;53.022;12.968;2024-02-21T10:05:49;22.60;45.80
15384;DHT22;7790;53.022;12.968;2024-02-21T10:10:02;22.70;45.80
15384;DHT22;7790;53.022;12.968;2024-02-21T10:14:07;22.70;45.80
15384;DHT22;7790;53.022;12.968;2024-02-21T10:18:08;22.70;45.70
15384;DHT22;7790;53.022;12.968;2024-02-21T10:22:09;22.70;45.60
15384;DHT22;7790;53.022;12.968;2024-02-21T10:26:10;22.70;45.50
15384;DHT22;7790;53.022;12.968;2024-02-21T10:30:14;22.80;45.40
15384;DHT22;7790;53.022;12.968;2024-02-21T10:34:16;22.90;45.30
15384;DHT22;7790;53.022;12.968;2024-02-21T10:38:18;22.90;45.20
15384;DHT22;7790;53.022;12.968;2024-02-21T10:42:21;22.80;45.20
15384;DHT22;7790;53.022;12.968;2024-02-21T10:46:24;22.80;45.30
15384;DHT22;7790;53.022;12.968;2024-02-21T10:50:25;22.70;45.40
15384;DHT22;7790;53.022;12.968;2024-02-21T10:54:50;22.60;45.50
15384;DHT22;7790;53.022;12.968;2024-02-21T10:58:53;22.70;45.50
15384;DHT22;7790;53.022;12.968;2024-02-21T11:02:54;22.70;45.80
15384;DHT22;7790;53.022;12.968;2024-02-21T11:06:55;22.70;45.20
15384;DHT22;7790;53.022;12.968;2024-02-21T11:10:59;22.80;45.20
15384;DHT22;7790;53.022;12.968;2024-02-21T11:15:05;22.80;45.20
15384;DHT22;7790;53.022;12.968;2024-02-21T11:19:19;22.70;45.20
15384;DHT22;7790;53.022;12.968;2024-02-21T11:23:26;22.70;45.10
15384;DHT22;7790;53.022;12.968;2024-02-21T11:27:27;22.70;45.10
15384;DHT22;7790;53.022;12.968;2024-02-21T11:31:39;22.60;45.20
15384;DHT22;7790;53.022;12.968;2024-02-21T11:35:40;22.50;45.20
15384;DHT22;7790;53.022;12.968;2024-02-21T11:39:41;22.50;45.40
15384;DHT22;7790;53.022;12.968;2024-02-21T11:43:42;22.50;45.30
15384;DHT22;7790;53.022;12.968;2024-02-21T11:47:43;22.60;45.20
15384;DHT22;7790;53.022;12.968;2024-02-21T11:51:44;22.70;45.20
15384;DHT22;7790;53.022;12.968;2024-02-21T11:55:46;22.80;45.10
15384;DHT22;7790;53.022;12.968;2024-02-21T11:59:47;22.80;45.10
15384;DHT22;7790;53.022;12.968;2024-02-21T12:03:49;22.90;45.20
15384;DHT22;7790;53.022;12.968;2024-02-21T12:07:50;22.90;45.20
15384;DHT22;7790;53.022;12.968;2024-02-21T12:12:04;22.90;45.10
15384;DHT22;7790;53.022;12.968;2024-02-21T12:16:05;22.90;45.30
15384;DHT22;7790;53.022;12.968;2024-02-21T12:20:07;22.90;45.40
15384;DHT22;7790;53.022;12.968;2024-02-21T12:28:16;22.50;45.70
15384;DHT22;7790;53.022;12.968;2024-02-21T12:32:18;22.50;45.70
15384;DHT22;7790;53.022;12.968;2024-02-21T12:36:18;22.60;45.60
15384;DHT22;7790;53.022;12.968;2024-02-21T12:40:19;22.60;45.50
15384;DHT22;7790;53.022;12.968;2024-02-21T12:44:20;22.70;45.30
15384;DHT22;7790;53.022;12.968;2024-02-21T12:48:21;22.70;45.30
15384;DHT22;7790;53.022;12.968;2024-02-21T12:52:23;22.80;45.20
15384;DHT22;7790;53.022;12.968;2024-02-21T12:56:25;22.80;45.10
15384;DHT22;7790;53.022;12.968;2024-02-21T13:00:30;22.70;45.20
15384;DHT22;7790;53.022;12.968;2024-02-21T13:04:32;22.70;45.30
15384;DHT22;7790;53.022;12.968;2024-02-21T13:08:32;22.60;45.30
15384;DHT22;7790;53.022;12.968;2024-02-21T13:12:35;22.50;45.40
15384;DHT22;7790;53.022;12.968;2024-02-21T13:16:35;22.60;45.40
15384;DHT22;7790;53.022;12.968;2024-02-21T13:20:40;22.60;45.30
15384;DHT22;7790;53.022;12.968;2024-02-21T13:24:41;22.70;45.20
15384;DHT22;7790;53.022;12.968;2024-02-21T13:28:41;22.70;45.10
15384;DHT22;7790;53.022;12.968;2024-02-21T13:32:44;22.70;45.00
15384;DHT22;7790;53.022;12.968;2024-02-21T13:36:46;22.70;45.00
15384;DHT22;7790;53.022;12.968;2024-02-21T13:40:47;22.70;45.00
15384;DHT22;7790;53.022;12.968;2024-02-21T13:44:48;22.60;45.20
15384;DHT22;7790;53.022;12.968;2024-02-21T13:48:49;22.50;45.30
15384;DHT22;7790;53.022;12.968;2024-02-21T13:52:50;22.40;45.40
15384;DHT22;7790;53.022;12.968;2024-02-21T13:56:51;22.50;45.40
15384;DHT22;7790;53.022;12.968;2024-02-21T14:00:52;22.50;45.20
15384;DHT22;7790;53.022;12.968;2024-02-21T14:04:54;22.60;45.10
15384;DHT22;7790;53.022;12.968;2024-02-21T14:08:55;22.70;45.10
15384;DHT22;7790;53.022;12.968;2024-02-21T14:12:56;22.70;45.00
15384;DHT22;7790;53.022;12.968;2024-02-21T14:16:57;22.70;44.90
15384;DHT22;7790;53.022;12.968;2024-02-21T14:20:58;22.70;45.00
15384;DHT22;7790;53.022;12.968;2024-02-21T14:24:59;22.70;45.20
15384;DHT22;7790;53.022;12.968;2024-02-21T14:29:00;22.60;45.30
15384;DHT22;7790;53.022;12.968;2024-02-21T14:33:01;22.50;45.40
15384;DHT22;7790;53.022;12.968;2024-02-21T14:37:02;22.60;45.40
15384;DHT22;7790;53.022;12.968;2024-02-21T14:41:04;22.60;45.40
15384;DHT22;7790;53.022;12.968;2024-02-21T14:45:05;22.70;45.40
15384;DHT22;7790;53.022;12.968;2024-02-21T14:49:06;22.70;45.30
15384;DHT22;7790;53.022;12.968;2024-02-21T14:53:08;22.80;45.20
15384;DHT22;7790;53.022;12.968;2024-02-21T14:57:08;22.80;45.30
15384;DHT22;7790;53.022;12.968;2024-02-21T15:01:10;22.70;45.40
15384;DHT22;7790;53.022;12.968;2024-02-21T15:05:10;22.60;45.50
15384;DHT22;7790;53.022;12.968;2024-02-21T15:09:12;22.50;45.60
15384;DHT22;7790;53.022;12.968;2024-02-21T15:13:13;22.50;45.70
15384;DHT22;7790;53.022;12.968;2024-02-21T15:17:15;22.50;45.60
15384;DHT22;7790;53.022;12.968;2024-02-21T15:21:15;22.60;45.60
15384;DHT22;7790;53.022;12.968;2024-02-21T15:25:16;22.70;45.50
15384;DHT22;7790;53.022;12.968;2024-02-21T15:29:18;22.70;45.40
15384;DHT22;7790;53.022;12.968;2024-02-21T15:33:19;22.80;45.20
15384;DHT22;7790;53.022;12.968;2024-02-21T15:37:20;22.90;45.20
15384;DHT22;7790;53.022;12.968;2024-02-21T15:41:20;22.90;45.20
15384;DHT22;7790;53.022;12.968;2024-02-21T15:45:22;22.80;45.40
15384;DHT22;7790;53.022;12.968;2024-02-21T15:49:23;22.70;45.40
15384;DHT22;7790;53.022;12.968;2024-02-21T15:53:23;22.70;45.60
15384;DHT22;7790;53.022;12.968;2024-02-21T15:57:24;22.60;45.60
15384;DHT22;7790;53.022;12.968;2024-02-21T16:01:25;22.60;45.60
15384;DHT22;7790;53.022;12.968;2024-02-21T16:05:26;22.60;45.60
15384;DHT22;7790;53.022;12.968;2024-02-21T16:09:28;22.70;45.60
15384;DHT22;7790;53.022;12.968;2024-02-21T16:13:29;22.70;45.50
15384;DHT22;7790;53.022;12.968;2024-02-21T16:17:30;22.80;45.50
15384;DHT22;7790;53.022;12.968;2024-02-21T16:21:31;22.70;45.60
15384;DHT22;7790;53.022;12.968;2024-02-21T16:25:32;22.80;45.50
15384;DHT22;7790;53.022;12.968;2024-02-21T16:29:34;22.70;45.70
15384;DHT22;7790;53.022;12.968;2024-02-21T16:33:35;22.60;45.80
15384;DHT22;7790;53.022;12.968;2024-02-21T16:37:35;22.60;45.70
15384;DHT22;7790;53.022;12.968;2024-02-21T16:41:37;22.70;45.70
15384;DHT22;7790;53.022;12.968;2024-02-21T16:45:38;22.70;45.70
15384;DHT22;7790;53.022;12.968;2024-02-21T16:49:38;22.80;45.50
15384;DHT22;7790;53.022;12.968;2024-02-21T16:53:39;22.80;45.40
15384;DHT22;7790;53.022;12.968;2024-02-21T16:57:40;22.90;45.40
15384;DHT22;7790;53.022;12.968;2024-02-21T17:01:41;22.90;45.20
15384;DHT22;7790;53.022;12.968;2024-02-21T17:05:42;22.90;45.30
15384;DHT22;7790;53.022;12.968;2024-02-21T17:09:43;22.80;45.40
15384;DHT22;7790;53.022;12.968;2024-02-21T17:13:44;22.80;45.50
15384;DHT22;7790;53.022;12.968;2024-02-21T17:17:45;22.70;45.70
15384;DHT22;7790;53.022;12.968;2024-02-21T17:21:46;22.60;45.80
15384;DHT22;7790;53.022;12.968;2024-02-21T17:25:46;22.60;45.80
15384;DHT22;7790;53.022;12.968;2024-02-21T17:29:48;22.60;45.80
15384;DHT22;7790;53.022;12.968;2024-02-21T17:33:49;22.70;45.70
15384;DHT22;7790;53.022;12.968;2024-02-21T17:37:50;22.80;45.50
15384;DHT22;7790;53.022;12.968;2024-02-21T17:41:51;22.80;45.40
15384;DHT22;7790;53.022;12.968;2024-02-21T17:45:53;22.90;45.30
15384;DHT22;7790;53.022;12.968;2024-02-21T17:49:56;22.80;45.30
15384;DHT22;7790;53.022;12.968;2024-02-21T17:53:57;22.80;45.30
15384;DHT22;7790;53.022;12.968;2024-02-21T17:57:58;22.80;45.30
15384;DHT22;7790;53.022;12.968;2024-02-21T18:01:59;22.80;45.20
15384;DHT22;7790;53.022;12.968;2024-02-21T18:06:00;22.70;45.70
15384;DHT22;7790;53.022;12.968;2024-02-21T18:10:02;22.70;45.70
15384;DHT22;7790;53.022;12.968;2024-02-21T18:14:03;22.70;45.70
15384;DHT22;7790;53.022;12.968;2024-02-21T18:18:05;22.70;45.60
15384;DHT22;7790;53.022;12.968;2024-02-21T18:22:06;22.90;45.40
15384;DHT22;7790;53.022;12.968;2024-02-21T18:26:10;22.90;45.50
15384;DHT22;7790;53.022;12.968;2024-02-21T18:30:11;22.80;45.40
15384;DHT22;7790;53.022;12.968;2024-02-21T18:34:12;22.80;45.50
15384;DHT22;7790;53.022;12.968;2024-02-21T18:38:14;22.80;45.60
15384;DHT22;7790;53.022;12.968;2024-02-21T18:42:14;22.70;45.70
15384;DHT22;7790;53.022;12.968;2024-02-21T18:46:16;22.60;45.30
15384;DHT22;7790;53.022;12.968;2024-02-21T18:50:17;22.40;44.70
15384;DHT22;7790;53.022;12.968;2024-02-21T18:54:17;22.40;45.10
15384;DHT22;7790;53.022;12.968;2024-02-21T18:58:18;22.50;45.40
15384;DHT22;7790;53.022;12.968;2024-02-21T19:02:19;22.60;45.30
15384;DHT22;7790;53.022;12.968;2024-02-21T19:06:20;22.70;45.40
15384;DHT22;7790;53.022;12.968;2024-02-21T19:10:21;22.70;45.20
15384;DHT22;7790;53.022;12.968;2024-02-21T19:14:22;22.80;45.10
15384;DHT22;7790;53.022;12.968;2024-02-21T19:18:23;22.90;45.10
15384;DHT22;7790;53.022;12.968;2024-02-21T19:22:23;22.90;45.10
15384;DHT22;7790;53.022;12.968;2024-02-21T19:26:29;22.90;45.00
15384;DHT22;7790;53.022;12.968;2024-02-21T19:30:30;22.80;45.00
15384;DHT22;7790;53.022;12.968;2024-02-21T19:34:31;22.70;45.20
15384;DHT22;7790;53.022;12.968;2024-02-21T19:38:32;22.60;45.30
15384;DHT22;7790;53.022;12.968;2024-02-21T19:42:33;22.60;45.50
15384;DHT22;7790;53.022;12.968;2024-02-21T19:46:34;22.60;45.50
15384;DHT22;7790;53.022;12.968;2024-02-21T19:50:40;22.60;45.50
15384;DHT22;7790;53.022;12.968;2024-02-21T19:54:41;22.60;45.50
15384;DHT22;7790;53.022;12.968;2024-02-21T19:58:42;22.70;45.30
15384;DHT22;7790;53.022;12.968;2024-02-21T20:02:42;22.70;45.20
15384;DHT22;7790;53.022;12.968;2024-02-21T20:06:44;22.80;45.30
15384;DHT22;7790;53.022;12.968;2024-02-21T20:10:45;22.90;45.10
15384;DHT22;7790;53.022;12.968;2024-02-21T20:14:46;22.90;44.90
15384;DHT22;7790;53.022;12.968;2024-02-21T20:18:46;22.90;45.10
15384;DHT22;7790;53.022;12.968;2024-02-21T20:22:47;22.80;45.30
15384;DHT22;7790;53.022;12.968;2024-02-21T20:26:48;22.70;45.40
15384;DHT22;7790;53.022;12.968;2024-02-21T20:30:49;22.60;45.50
15384;DHT22;7790;53.022;12.968;2024-02-21T20:34:50;22.60;45.60
15384;DHT22;7790;53.022;12.968;2024-02-21T20:38:51;22.70;45.40
15384;DHT22;7790;53.022;12.968;2024-02-21T20:42:52;22.60;45.50
15384;DHT22;7790;53.022;12.968;2024-02-21T20:46:54;22.70;45.40
15384;DHT22;7790;53.022;12.968;2024-02-21T20:50:55;22.70;45.30
15384;DHT22;7790;53.022;12.968;2024-02-21T20:54:56;22.80;45.30
15384;DHT22;7790;53.022;12.968;2024-02-21T20:58:57;22.80;45.20
15384;DHT22;7790;53.022;12.968;2024-02-21T21:02:58;22.80;45.20
15384;DHT22;7790;53.022;12.968;2024-02-21T21:06:59;22.70;45.20
15384;DHT22;7790;53.022;12.968;2024-02-21T21:11:01;22.60;45.10
15384;DHT22;7790;53.022;12.968;2024-02-21T21:15:03;22.60;45.20
15384;DHT22;7790;53.022;12.968;2024-02-21T21:19:05;22.50;45.40
15384;DHT22;7790;53.022;12.968;2024-02-21T21:23:06;22.50;45.40
15384;DHT22;7790;53.022;12.968;2024-02-21T21:27:07;22.70;45.50
15384;DHT22;7790;53.022;12.968;2024-02-21T21:31:09;22.90;44.80
15384;DHT22;7790;53.022;12.968;2024-02-21T21:35:10;23.00;44.70
15384;DHT22;7790;53.022;12.968;2024-02-21T21:39:11;22.90;44.70
15384;DHT22;7790;53.022;12.968;2024-02-21T21:43:19;22.80;44.70
15384;DHT22;7790;53.022;12.968;2024-02-21T21:47:22;22.70;44.70
15384;DHT22;7790;53.022;12.968;2024-02-21T21:51:24;22.50;44.80
15384;DHT22;7790;53.022;12.968;2024-02-21T21:55:29;22.40;44.90
15384;DHT22;7790;53.022;12.968;2024-02-21T21:59:30;22.30;45.00
15384;DHT22;7790;53.022;12.968;2024-02-21T22:03:31;22.20;45.00
15384;DHT22;7790;53.022;12.968;2024-02-21T22:07:32;22.10;45.00
15384;DHT22;7790;53.022;12.968;2024-02-21T22:11:33;22.00;45.00
15384;DHT22;7790;53.022;12.968;2024-02-21T22:15:34;21.90;45.10
15384;DHT22;7790;53.022;12.968;2024-02-21T22:19:34;21.80;45.60
15384;DHT22;7790;53.022;12.968;2024-02-21T22:23:35;21.80;45.00
15384;DHT22;7790;53.022;12.968;2024-02-21T22:27:36;21.70;45.10
15384;DHT22;7790;53.022;12.968;2024-02-21T22:31:37;21.60;44.90
15384;DHT22;7790;53.022;12.968;2024-02-21T22:35:40;21.60;45.00
15384;DHT22;7790;53.022;12.968;2024-02-21T22:39:43;21.50;45.00
15384;DHT22;7790;53.022;12.968;2024-02-21T22:43:43;21.50;45.10
15384;DHT22;7790;53.022;12.968;2024-02-21T22:47:46;21.40;45.10
15384;DHT22;7790;53.022;12.968;2024-02-21T22:51:47;21.40;45.00
15384;DHT22;7790;53.022;12.968;2024-02-21T22:55:48;21.40;44.90
15384;DHT22;7790;53.022;12.968;2024-02-21T22:59:49;21.40;44.90
15384;DHT22;7790;53.022;12.968;2024-02-21T23:03:50;21.40;44.90
15384;DHT22;7790;53.022;12.968;2024-02-21T23:07:50;21.30;45.00
15384;DHT22;7790;53.022;12.968;2024-02-21T23:11:53;21.20;45.00
15384;DHT22;7790;53.022;12.968;2024-02-21T23:15:54;21.20;45.00
15384;DHT22;7790;53.022;12.968;2024-02-21T23:19:54;21.10;44.90
15384;DHT22;7790;53.022;12.968;2024-02-21T23:23:55;21.30;44.80
15384;DHT22;7790;53.022;12.968;2024-02-21T23:27:56;21.50;44.70
15384;DHT22;7790;53.022;12.968;2024-02-21T23:31:57;21.60;44.80
15384;DHT22;7790;53.022;12.968;2024-02-21T23:35:58;21.80;44.60
15384;DHT22;7790;53.022;12.968;2024-02-21T23:39:59;21.90;44.90
15384;DHT22;7790;53.022;12.968;2024-02-21T23:44:00;22.10;44.30
15384;DHT22;7790;53.022;12.968;2024-02-21T23:48:00;22.10;44.10
15384;DHT22;7790;53.022;12.968;2024-02-21T23:52:01;22.20;44.10
15384;DHT22;7790;53.022;12.968;2024-02-21T23:56:08;22.30;44.20
